Terminal Aerodrome Forecast
Issued by NWS

Current Version | Previous Version | Text Only | Print | Product List | Glossary Off
Versions: 1 2 3 4 5 6 7 8 9 10 11 12 13 14 15 16 17 18 19 20 21

000
FTUS41 KPBZ 272300
TAFHLG
TAF
KHLG 272339Z 2800/2824 16007KT P6SM SCT250
     FM280300 18007KT P6SM BKN250 WS020/23040KT
     FM281500 22012G22KT P6SM SCT040
     FM282200 24012G24KT P6SM -SHRA BKN040=

USA.gov is the U.S. government's official web portal to all federal, state and local government web resources and services.